Time;durP1;ratioP1;P1;durP2;ratioP2;P2;SDS_P1;SDS_P2;PMS_P1;PMS_P2;Temp;Humidity;BMP_temperature;BMP_pressure;BME280_temperature;BME280_humidity;BME280_pressure;Samples;Min_cycle;Max_cycle;Signal;HPM_P1;HPM_P2
2022/05/26 00:01:20;;;;;;;1.17;0.88;;;;;;;17.86;43.58;99826.77;1641406;85;21019;-69
2022/05/26 00:03:48;;;;;;;2.20;0.88;;;;;;;17.86;43.58;99826.77;1620965;87;21094;-69
2022/05/26 00:06:18;;;;;;;2.87;1.22;;;;;;;17.81;43.62;99824.77;1625148;87;21129;-69
2022/05/26 00:08:45;;;;;;;5.28;1.22;;;;;;;17.78;44.01;99824.44;1620885;87;21019;-71
2022/05/26 00:11:19;;;;;;;2.22;1.12;;;;;;;17.75;44.28;99824.95;1676839;85;21030;-70
2022/05/26 00:13:46;;;;;;;2.72;1.25;;;;;;;17.80;44.37;99804.79;1658031;86;21564;-71
2022/05/26 00:16:13;;;;;;;4.90;1.37;;;;;;;17.80;44.37;99804.79;1660568;85;21538;-70
2022/05/26 00:18:43;;;;;;;4.95;1.17;;;;;;;17.86;44.04;99798.45;1651724;86;21166;-69
2022/05/26 00:21:10;;;;;;;1.85;1.07;;;;;;;17.86;44.04;99798.45;1676722;85;21041;-70
2022/05/26 00:23:36;;;;;;;4.65;1.17;;;;;;;17.88;44.14;99790.93;1659048;85;21045;-71
2022/05/26 00:26:03;;;;;;;0.98;0.95;;;;;;;17.92;43.98;99794.75;1659065;85;20994;-71
2022/05/26 00:28:31;;;;;;;4.33;0.78;;;;;;;17.98;43.81;99790.23;1659234;85;21518;-69
2022/05/26 00:30:59;;;;;;;2.15;1.00;;;;;;;18.02;43.69;99782.73;1678159;85;21062;-74
2022/05/26 00:33:26;;;;;;;2.33;0.98;;;;;;;18.02;43.69;99782.73;1667620;85;21042;-72
2022/05/26 00:35:52;;;;;;;1.07;0.95;;;;;;;18.03;43.69;99785.73;1659282;85;21061;-69
2022/05/26 00:38:20;;;;;;;1.55;0.90;;;;;;;18.08;43.53;99785.80;1659266;85;21109;-70
2022/05/26 00:40:48;;;;;;;3.47;1.27;;;;;;;18.13;43.58;99780.17;1658417;85;21079;-70
2022/05/26 00:43:14;;;;;;;6.05;1.67;;;;;;;18.15;43.64;99782.09;1654734;86;21227;-70
2022/05/26 00:45:52;;;;;;;3.33;1.17;;;;;;;18.15;43.62;99781.55;1642514;85;21501;-70
2022/05/26 00:48:23;;;;;;;0.90;0.90;;;;;;;18.17;43.81;99778.59;1657834;85;21336;-69
2022/05/26 00:50:54;;;;;;;3.62;1.40;;;;;;;18.16;43.87;99773.75;1659464;85;21041;-70
2022/05/26 00:53:49;;;;;;;11.97;1.72;;;;;;;18.17;43.92;99765.11;1658878;85;21105;-71
2022/05/26 00:56:24;;;;;;;2.22;0.80;;;;;;;18.17;43.95;99765.11;1659596;85;21036;-72
2022/05/26 00:58:55;;;;;;;4.25;0.90;;;;;;;18.19;44.02;99763.78;1657980;85;21057;-70
2022/05/26 01:01:22;;;;;;;2.55;0.95;;;;;;;18.23;43.93;99761.39;1641321;85;21044;-71
2022/05/26 01:03:56;;;;;;;2.72;1.22;;;;;;;18.22;44.27;99760.59;1659419;85;21040;-74
2022/05/26 01:06:29;;;;;;;1.00;0.70;;;;;;;18.17;44.23;99747.58;1657372;86;21025;-70
2022/05/26 01:09:00;;;;;;;0.98;0.82;;;;;;;18.26;44.33;99746.88;1658906;86;21140;-70
2022/05/26 01:11:31;;;;;;;12.18;1.00;;;;;;;18.26;44.33;99746.88;1660375;83;21036;-69
2022/05/26 01:14:02;;;;;;;1.70;0.72;;;;;;;18.28;44.79;99743.92;1659402;85;20996;-69
2022/05/26 01:16:53;;;;;;;0.85;0.80;;;;;;;18.26;44.80;99741.48;1658778;85;21075;-70
2022/05/26 01:19:57;;;;;;;1.25;1.02;;;;;;;18.33;44.54;99743.16;1659485;85;21110;-75
2022/05/26 01:22:42;;;;;;;3.55;0.70;;;;;;;18.33;44.54;99743.16;1611007;83;21040;-71
2022/05/26 01:25:42;;;;;;;6.30;1.10;;;;;;;18.33;44.94;99735.89;1657028;86;21548;-70
2022/05/26 01:28:34;;;;;;;9.90;1.57;;;;;;;18.37;44.89;99728.92;1664619;85;21508;-69
2022/05/26 01:31:40;;;;;;;2.00;0.68;;;;;;;18.37;45.31;99720.02;1665856;85;21544;-70
2022/05/26 01:34:19;;;;;;;2.55;0.53;;;;;;;18.41;44.75;99709.80;1659146;84;21025;-70
2022/05/26 01:37:07;;;;;;;7.33;1.27;;;;;;;18.41;44.75;99709.80;1659346;85;21587;-70
2022/05/26 01:39:59;;;;;;;8.43;0.60;;;;;;;18.44;44.92;99719.25;1658514;85;21056;-69
2022/05/26 01:42:42;;;;;;;2.52;0.72;;;;;;;18.44;44.97;99709.30;1659377;85;21055;-70
2022/05/26 01:45:30;;;;;;;6.55;0.80;;;;;;;18.47;45.00;99717.41;1658421;85;22116;-69
2022/05/26 01:48:31;;;;;;;3.60;0.50;;;;;;;18.48;45.06;99715.80;1660161;85;21068;-69
2022/05/26 01:51:22;;;;;;;5.87;0.93;;;;;;;18.52;44.87;99716.66;1658985;85;21516;-69
2022/05/26 01:54:03;;;;;;;2.17;0.60;;;;;;;18.51;45.04;99712.31;1660318;85;21064;-69
2022/05/26 01:56:41;;;;;;;3.42;0.40;;;;;;;18.49;45.25;99710.67;1644424;85;21001;-70
2022/05/26 02:02:09;;;;;;;2.67;0.33;;;;;;;18.49;45.44;99703.11;1767118;79;22593;-75
2022/05/26 02:04:45;;;;;;;2.22;0.85;;;;;;;18.40;45.52;99700.09;1723978;83;21505;-70
2022/05/26 02:07:21;;;;;;;6.37;0.93;;;;;;;18.38;45.75;99698.70;1725845;83;21616;-72
2022/05/26 02:09:52;;;;;;;1.57;0.82;;;;;;;18.35;45.77;99697.33;1717398;83;21027;-69
2022/05/26 02:12:43;;;;;;;1.40;0.82;;;;;;;18.32;45.71;99691.62;1717382;83;21064;-70
2022/05/26 02:15:34;;;;;;;4.85;1.27;;;;;;;18.30;45.49;99691.88;1687513;83;21048;-70
2022/05/26 02:18:09;;;;;;;2.67;0.82;;;;;;;18.26;45.67;99690.22;1714927;82;21516;-71
2022/05/26 02:20:41;;;;;;;5.12;0.93;;;;;;;18.23;45.73;99689.91;1713868;83;21076;-70
2022/05/26 02:23:33;;;;;;;3.15;0.88;;;;;;;18.19;45.73;99684.75;1730192;82;21072;-71
2022/05/26 02:26:02;;;;;;;4.47;1.10;;;;;;;17.86;45.56;99637.51;1705109;83;21541;-71
2022/05/26 02:29:51;;;;;;;3.20;0.90;;;;;;;17.86;45.56;99637.51;1704893;83;21032;-69
2022/05/26 02:30:58;;;;;;;4.47;0.90;;;;;;;18.14;47.07;99687.39;1726791;83;21440;-69
2022/05/26 02:33:24;;;;;;;2.52;1.35;;;;;;;18.14;47.07;99687.39;1713570;83;21002;-70
2022/05/26 02:35:54;;;;;;;5.00;0.95;;;;;;;18.08;47.47;99683.31;1715813;83;21038;-70
2022/05/26 02:38:23;;;;;;;3.50;1.00;;;;;;;18.06;47.35;99684.11;1708516;83;21533;-70
2022/05/26 02:40:52;;;;;;;1.85;0.88;;;;;;;18.01;47.90;99679.20;1718848;83;21049;-70
2022/05/26 02:43:27;;;;;;;2.25;0.98;;;;;;;18.01;47.90;99679.20;1704212;83;21008;-71
2022/05/26 02:46:28;;;;;;;4.47;1.25;;;;;;;17.97;47.75;99674.00;1727180;83;21092;-69
2022/05/26 02:49:16;;;;;;;1.75;0.30;;;;;;;17.95;47.19;99682.37;1732797;83;21026;-71
2022/05/26 02:52:21;;;;;;;1.82;0.70;;;;;;;17.93;46.66;99683.67;1723767;83;21505;-70
2022/05/26 02:55:18;;;;;;;3.90;0.60;;;;;;;17.93;46.68;99686.36;1732115;83;21099;-71
2022/05/26 02:58:13;;;;;;;3.70;0.40;;;;;;;17.88;46.77;99691.98;1725076;83;21009;-69
2022/05/26 03:01:06;;;;;;;5.47;0.37;;;;;;;17.84;47.08;99694.91;1697567;83;21041;-70
2022/05/26 03:03:44;;;;;;;2.90;0.42;;;;;;;17.84;47.08;99694.91;1677631;83;21529;-69
2022/05/26 03:06:34;;;;;;;3.47;0.50;;;;;;;17.85;48.76;99688.44;1689655;83;21542;-70
2022/05/26 03:09:03;;;;;;;6.50;0.98;;;;;;;17.77;50.35;99682.66;1693002;83;21174;-69
2022/05/26 03:11:48;;;;;;;5.03;0.75;;;;;;;17.62;51.83;99677.91;1698069;83;21057;-70
2022/05/26 03:14:16;;;;;;;8.65;0.85;;;;;;;17.43;53.52;99682.24;1701916;83;21164;-69
2022/05/26 03:16:44;;;;;;;3.05;0.55;;;;;;;17.27;53.49;99683.93;1684717;83;21488;-69
2022/05/26 03:19:12;;;;;;;4.08;1.00;;;;;;;17.16;54.69;99676.77;1677915;83;21572;-70
2022/05/26 03:21:40;;;;;;;2.98;0.60;;;;;;;17.06;56.14;99674.73;1688695;83;21077;-70
2022/05/26 03:24:07;;;;;;;0.95;0.70;;;;;;;17.01;55.59;99664.41;1678478;83;21080;-70
2022/05/26 03:26:35;;;;;;;11.73;0.90;;;;;;;16.95;55.78;99662.72;1700650;84;21073;-69
2022/05/26 03:29:03;;;;;;;3.37;0.75;;;;;;;16.91;55.98;99662.39;1679835;83;21141;-71
2022/05/26 03:31:34;;;;;;;4.78;1.07;;;;;;;16.87;56.30;99659.91;1681965;83;21328;-69
2022/05/26 03:42:17;;;;;;;2.27;0.90;;;;;;;16.40;62.32;99671.78;1706375;84;21028;-69
2022/05/26 03:44:44;;;;;;;4.53;1.07;;;;;;;16.04;64.87;99677.86;1684256;84;21070;-69
2022/05/26 03:47:11;;;;;;;5.55;1.02;;;;;;;15.81;67.01;99676.62;1681236;84;21091;-69
2022/05/26 03:49:37;;;;;;;6.50;1.52;;;;;;;15.61;68.39;99677.80;1689461;84;21046;-69
2022/05/26 03:52:05;;;;;;;5.67;1.27;;;;;;;15.40;70.40;99684.62;1679213;84;21085;-71
2022/05/26 03:54:33;;;;;;;6.15;1.57;;;;;;;15.13;72.93;99681.09;1669586;82;21050;-69
2022/05/26 03:56:59;;;;;;;3.37;1.90;;;;;;;15.04;73.09;99673.63;1666706;85;21556;-69
2022/05/26 03:59:25;;;;;;;;;;;;;;;14.92;74.18;99682.50;1678218;86;21557;-68
2022/05/26 04:01:53;;;;;;;6.40;1.60;;;;;;;14.86;74.17;99680.75;1708084;84;20133;-70
2022/05/26 04:04:19;;;;;;;5.80;1.57;;;;;;;14.75;75.48;99678.88;1681954;84;21580;-70
2022/05/26 04:06:46;;;;;;;4.67;2.45;;;;;;;14.71;76.49;99679.02;1679924;84;21049;-70
2022/05/26 04:09:12;;;;;;;3.62;1.45;;;;;;;14.64;77.85;99679.14;1640854;86;21554;-71
2022/05/26 04:11:38;;;;;;;5.78;1.37;;;;;;;14.59;78.15;99683.03;1672877;85;20994;-70
2022/05/26 04:14:04;;;;;;;5.15;1.92;;;;;;;14.51;79.53;99686.03;1690366;84;21087;-69
2022/05/26 04:16:30;;;;;;;3.33;2.05;;;;;;;14.44;80.29;99689.33;1683245;84;21922;-70
2022/05/26 04:18:56;;;;;;;3.87;2.17;;;;;;;14.35;81.71;99684.81;1704074;84;21080;-70
2022/05/26 04:21:22;;;;;;;;;;;;;;;14.33;82.57;99686.38;1700750;84;21046;-70
2022/05/26 04:23:49;;;;;;;4.03;2.42;;;;;;;14.27;83.50;99691.31;1666529;85;20167;-71
2022/05/26 04:26:15;;;;;;;7.30;2.87;;;;;;;14.20;84.75;99706.17;1652689;85;21620;-71
2022/05/26 04:28:41;;;;;;;5.83;1.70;;;;;;;14.17;85.54;99697.23;1721803;82;21073;-70
2022/05/26 04:31:08;;;;;;;5.08;2.75;;;;;;;14.16;85.21;99700.94;1721239;82;21022;-69
2022/05/26 04:33:34;;;;;;;5.33;2.00;;;;;;;14.12;87.09;99691.73;1718793;82;21571;-71
2022/05/26 04:36:06;;;;;;;7.17;3.02;;;;;;;14.04;88.60;99696.08;1725112;82;21069;-71
2022/05/26 04:38:32;;;;;;;7.03;2.70;;;;;;;13.95;90.40;99704.13;1720666;82;21561;-73
2022/05/26 04:41:04;;;;;;;3.35;1.98;;;;;;;13.83;90.79;99705.42;1639763;85;21054;-73
2022/05/26 04:43:31;;;;;;;7.90;2.52;;;;;;;13.71;93.06;99703.18;1658354;85;21065;-72
2022/05/26 04:45:59;;;;;;;3.02;2.65;;;;;;;13.63;92.83;99698.95;1662106;85;21066;-72
2022/05/26 04:48:26;;;;;;;4.10;3.17;;;;;;;13.57;93.51;99702.00;1707027;82;21053;-72
2022/05/26 04:50:54;;;;;;;2.95;2.05;;;;;;;13.50;95.33;99699.91;1707988;83;21034;-72
2022/05/26 04:53:21;;;;;;;5.78;2.42;;;;;;;13.47;94.77;99695.52;1712193;82;21299;-71
2022/05/26 04:55:54;;;;;;;5.30;3.25;;;;;;;13.46;95.65;99692.56;1723900;82;21348;-71
2022/05/26 04:58:21;;;;;;;5.85;2.55;;;;;;;13.43;96.74;99689.30;1700957;84;21386;-70
2022/05/26 05:00:49;;;;;;;3.83;3.17;;;;;;;13.42;97.69;99687.64;1695630;82;21050;-71
2022/05/26 05:03:16;;;;;;;4.22;2.85;;;;;;;13.40;97.79;99686.23;1721263;83;21006;-72
2022/05/26 05:05:42;;;;;;;3.60;3.00;;;;;;;13.41;98.37;99682.50;1720388;82;21068;-70
2022/05/26 05:08:08;;;;;;;9.20;3.10;;;;;;;13.38;99.03;99686.45;1721118;82;21991;-71
2022/05/26 05:10:34;;;;;;;5.05;3.10;;;;;;;13.38;98.83;99697.16;1707738;82;21191;-71
2022/05/26 05:13:00;;;;;;;4.25;3.40;;;;;;;13.38;98.81;99695.83;1724574;82;21569;-73
2022/05/26 05:15:32;;;;;;;5.17;3.30;;;;;;;13.39;98.75;99693.46;1708790;82;21551;-72
2022/05/26 05:18:01;;;;;;;5.45;2.58;;;;;;;13.42;98.85;99693.00;1719930;82;21079;-73
2022/05/26 05:20:28;;;;;;;3.60;3.00;;;;;;;13.44;99.29;99704.30;1724133;82;21040;-71
2022/05/26 05:23:00;;;;;;;3.40;3.10;;;;;;;13.48;99.85;99701.19;1724758;81;21052;-74
2022/05/26 05:25:38;;;;;;;6.05;2.80;;;;;;;13.43;100.00;99696.52;1705172;82;21533;-70
2022/05/26 05:28:12;;;;;;;5.92;2.90;;;;;;;13.42;100.00;99704.23;1715372;82;21035;-73
2022/05/26 05:30:51;;;;;;;3.52;3.22;;;;;;;13.40;100.00;99704.45;1711901;83;21513;-73
2022/05/26 05:33:27;;;;;;;4.00;3.60;;;;;;;13.41;100.00;99706.09;1718191;81;21059;-73
2022/05/26 05:35:59;;;;;;;6.03;4.05;;;;;;;13.41;100.00;99703.42;1718880;82;21038;-72
2022/05/26 05:38:28;;;;;;;4.97;3.27;;;;;;;13.45;100.00;99711.83;1710490;83;21510;-71
2022/05/26 05:40:54;;;;;;;5.65;3.58;;;;;;;13.49;100.00;99705.52;1708240;82;21063;-71
2022/05/26 05:43:20;;;;;;;;;;;;;;;13.55;100.00;99709.44;1726334;82;21524;-70
2022/05/26 05:45:47;;;;;;;4.62;3.22;;;;;;;13.61;100.00;99712.55;1718250;81;20130;-74
2022/05/26 05:48:14;;;;;;;5.25;2.83;;;;;;;13.63;100.00;99717.69;1714714;83;21033;-73
2022/05/26 05:50:40;;;;;;;3.55;3.20;;;;;;;13.68;100.00;99715.17;1703102;82;21009;-71
2022/05/26 05:53:06;;;;;;;3.25;2.95;;;;;;;13.74;100.00;99719.63;1724009;82;21108;-75
2022/05/26 05:55:32;;;;;;;3.02;2.60;;;;;;;13.76;99.73;99719.41;1697641;83;21103;-70
2022/05/26 05:57:59;;;;;;;7.53;3.50;;;;;;;13.78;99.79;99719.47;1719838;82;21517;-71
2022/05/26 06:00:25;;;;;;;9.40;3.30;;;;;;;13.87;99.99;99717.84;1703403;82;21045;-71
2022/05/26 06:02:51;;;;;;;;;;;;;;;13.93;99.59;99719.61;1704010;84;21112;-71
2022/05/26 06:05:18;;;;;;;5.33;3.60;;;;;;;13.96;99.57;99716.50;1712587;82;20126;-71
2022/05/26 06:07:44;;;;;;;4.87;3.27;;;;;;;13.98;99.86;99717.89;1711207;82;21082;-71
2022/05/26 06:10:13;;;;;;;4.03;2.98;;;;;;;14.05;99.60;99722.34;1721065;82;21040;-72
2022/05/26 06:12:41;;;;;;;4.60;3.33;;;;;;;14.11;99.61;99722.27;1704970;82;21004;-72
2022/05/26 06:15:09;;;;;;;2.45;2.35;;;;;;;14.25;99.32;99734.95;1724153;82;21017;-71
2022/05/26 06:17:35;;;;;;;4.03;3.77;;;;;;;14.25;99.32;99734.95;1718873;82;21008;-72
2022/05/26 06:20:05;;;;;;;4.17;3.45;;;;;;;14.30;99.35;99743.14;1724012;82;21146;-71
2022/05/26 06:22:35;;;;;;;3.02;2.77;;;;;;;14.33;99.15;99741.86;1689880;84;21049;-72
2022/05/26 06:25:03;;;;;;;7.55;3.08;;;;;;;14.35;99.52;99743.79;1712485;82;20992;-71
2022/05/26 06:30:18;;;;;;;4.30;2.98;;;;;;;14.38;100.00;99749.52;1709759;83;21157;-73
2022/05/26 06:38:25;;;;;;;1.35;1.25;;;;;;;14.39;100.00;99740.94;1706658;83;21113;-74
2022/05/26 06:40:52;;;;;;;1.55;1.45;;;;;;;14.36;100.00;99726.14;1711125;82;21021;-73
2022/05/26 06:43:19;;;;;;;2.25;1.20;;;;;;;14.36;100.00;99742.76;1717258;82;21085;-73
2022/05/26 06:45:48;;;;;;;0.97;0.93;;;;;;;14.37;100.00;99730.97;1723648;81;21027;-72
2022/05/26 06:48:16;;;;;;;0.98;0.80;;;;;;;14.37;100.00;99724.27;1718960;82;21050;-70
2022/05/26 06:50:43;;;;;;;1.50;0.93;;;;;;;14.38;100.00;99737.98;1692790;84;21046;-70
2022/05/26 06:53:10;;;;;;;;;;;;;;;14.41;100.00;99747.73;1719521;82;21005;-71
2022/05/26 06:55:38;;;;;;;1.40;0.68;;;;;;;14.41;100.00;99749.60;1718117;81;20142;-72
2022/05/26 06:58:05;;;;;;;1.75;0.40;;;;;;;14.39;100.00;99765.07;1724050;82;20997;-71
2022/05/26 07:00:31;;;;;;;0.70;0.68;;;;;;;14.38;99.69;99754.07;1707391;82;21570;-70
2022/05/26 07:02:57;;;;;;;1.00;0.60;;;;;;;14.37;98.88;99755.94;1652166;85;21154;-71
2022/05/26 07:05:23;;;;;;;;;;;;;;;14.32;98.70;99769.73;1653026;87;21011;-72
2022/05/26 07:07:50;;;;;;;2.25;0.30;;;;;;;14.27;98.65;99772.27;1651524;85;20142;-73
2022/05/26 07:10:16;;;;;;;0.65;0.42;;;;;;;14.19;99.01;99776.89;1652566;86;21082;-74
2022/05/26 07:12:43;;;;;;;0.45;0.20;;;;;;;14.20;99.02;99785.23;1684228;84;21154;-71
2022/05/26 07:15:11;;;;;;;0.85;0.30;;;;;;;14.19;98.62;99790.29;1699276;84;21025;-73
2022/05/26 07:17:38;;;;;;;0.33;0.33;;;;;;;14.20;98.42;99790.60;1680474;84;21826;-72
2022/05/26 07:20:09;;;;;;;0.40;0.33;;;;;;;14.23;98.00;99792.53;1699127;84;21064;-76
2022/05/26 07:22:36;;;;;;;1.75;0.40;;;;;;;14.19;97.19;99788.95;1674287;84;21132;-76
2022/05/26 07:25:03;;;;;;;1.20;0.37;;;;;;;14.14;96.11;99796.84;1680498;84;21054;-73
2022/05/26 07:27:29;;;;;;;0.78;0.40;;;;;;;14.08;95.42;99781.66;1702778;84;21536;-71
2022/05/26 07:29:55;;;;;;;2.58;0.25;;;;;;;14.04;95.35;99792.54;1705089;84;21028;-74
2022/05/26 07:32:22;;;;;;;0.30;0.30;;;;;;;14.04;95.41;99795.22;1686186;83;21125;-75
2022/05/26 07:34:50;;;;;;;0.30;0.30;;;;;;;14.05;95.54;99782.10;1666039;84;21433;-72
2022/05/26 07:42:46;;;;;;;0.93;0.70;;;;;;;14.11;93.60;99796.47;1663070;86;21074;-75
2022/05/26 07:45:13;;;;;;;1.57;0.90;;;;;;;14.14;93.93;99800.86;1650564;86;21024;-73
2022/05/26 07:47:40;;;;;;;0.70;0.33;;;;;;;14.23;94.09;99804.59;1646657;86;21078;-71
2022/05/26 07:50:11;;;;;;;0.50;0.40;;;;;;;14.34;93.76;99793.11;1659519;86;21076;-72
2022/05/26 07:52:38;;;;;;;1.20;0.62;;;;;;;14.46;93.83;99793.95;1658501;86;21070;-72
2022/05/26 07:55:06;;;;;;;1.72;0.55;;;;;;;14.60;93.24;99798.14;1650218;86;21091;-71
2022/05/26 07:57:33;;;;;;;2.05;0.90;;;;;;;14.76;92.49;99806.58;1666916;86;21015;-71
2022/05/26 07:59:59;;;;;;;1.12;0.60;;;;;;;14.93;92.10;99802.19;1634355;86;21593;-74
2022/05/26 08:02:26;;;;;;;3.42;1.50;;;;;;;15.08;90.74;99803.63;1676142;84;21122;-73
2022/05/26 08:04:53;;;;;;;1.20;0.98;;;;;;;15.13;90.21;99798.39;1674879;84;21117;-71
2022/05/26 08:07:20;;;;;;;0.90;0.80;;;;;;;15.18;88.21;99790.44;1681171;84;21559;-71
2022/05/26 08:09:47;;;;;;;2.80;0.90;;;;;;;15.20;87.69;99800.45;1695558;84;21138;-72
2022/05/26 08:12:15;;;;;;;1.20;1.10;;;;;;;15.23;87.49;99803.98;1700115;83;21055;-71
2022/05/26 08:14:44;;;;;;;0.70;0.70;;;;;;;15.20;87.53;99804.47;1709765;83;21079;-72
2022/05/26 08:17:18;;;;;;;1.32;0.85;;;;;;;15.20;87.21;99813.87;1692610;83;21023;-72
2022/05/26 08:19:44;;;;;;;1.80;0.90;;;;;;;15.14;86.85;99817.45;1692611;84;21028;-71
2022/05/26 08:22:13;;;;;;;3.17;1.07;;;;;;;15.09;87.01;99822.19;1708364;82;21123;-70
2022/05/26 08:24:41;;;;;;;0.90;0.90;;;;;;;15.09;87.40;99828.09;1687773;84;21377;-72
2022/05/26 08:27:07;;;;;;;1.50;1.40;;;;;;;15.08;87.67;99828.59;1690573;84;21014;-72
2022/05/26 08:29:34;;;;;;;1.25;1.07;;;;;;;15.06;87.75;99836.59;1701039;84;21044;-73
2022/05/26 08:32:01;;;;;;;0.70;0.60;;;;;;;15.11;87.85;99827.33;1690498;84;21050;-73
2022/05/26 08:34:27;;;;;;;3.35;0.82;;;;;;;15.23;85.87;99840.23;1692612;84;21151;-71
2022/05/26 08:36:53;;;;;;;0.85;0.75;;;;;;;15.37;85.09;99848.37;1710024;83;21055;-71
2022/05/26 08:39:19;;;;;;;;;;;;;;;15.50;83.48;99841.13;1701929;83;21031;-70
2022/05/26 08:41:50;;;;;;;2.35;0.50;;;;;;;15.64;81.78;99847.92;1701694;84;20189;-74
2022/05/26 08:44:34;;;;;;;3.47;0.85;;;;;;;15.74;81.07;99857.58;1707049;84;21166;-72
2022/05/26 08:47:15;;;;;;;0.90;0.62;;;;;;;15.75;76.88;99857.08;1641067;86;21067;-73
2022/05/26 08:50:01;;;;;;;2.62;0.88;;;;;;;15.72;78.48;99857.50;1635533;86;21085;-71
2022/05/26 08:52:46;;;;;;;0.57;0.57;;;;;;;15.72;78.71;99850.78;1705708;84;21056;-71
2022/05/26 08:55:17;;;;;;;0.62;0.55;;;;;;;15.99;78.67;99853.81;1705181;84;21123;-71
2022/05/26 08:58:00;;;;;;;2.87;0.50;;;;;;;16.15;76.80;99850.95;1700175;84;21088;-74
2022/05/26 09:00:26;;;;;;;2.05;0.70;;;;;;;16.28;74.72;99849.34;1700494;83;21693;-74
2022/05/26 09:02:58;;;;;;;1.32;0.68;;;;;;;16.48;73.63;99846.75;1709788;84;21107;-73
2022/05/26 09:05:25;;;;;;;1.35;0.62;;;;;;;16.65;73.11;99854.88;1706293;83;21111;-77
2022/05/26 09:13:54;;;;;;;1.92;0.30;;;;;;;16.84;67.54;99839.38;1700182;84;21028;-71
2022/05/26 09:16:21;;;;;;;2.20;0.50;;;;;;;16.95;68.38;99845.77;1702189;84;21109;-73
2022/05/26 09:19:13;;;;;;;2.15;0.30;;;;;;;17.10;68.50;99847.38;1700654;84;21131;-73
2022/05/26 09:21:41;;;;;;;2.85;0.30;;;;;;;17.23;64.05;99830.90;1710520;84;21498;-72
2022/05/26 09:24:33;;;;;;;1.90;0.20;;;;;;;17.50;63.94;99855.86;1697675;84;21585;-72
2022/05/26 09:27:08;;;;;;;0.62;0.20;;;;;;;17.50;63.94;99855.86;1706053;84;21042;-75
2022/05/26 09:29:37;;;;;;;2.30;0.20;;;;;;;17.68;63.24;99839.41;1686859;84;21553;-71
2022/05/26 09:32:06;;;;;;;0.10;0.10;;;;;;;17.78;61.63;99839.27;1699739;83;21094;-70
2022/05/26 09:34:34;;;;;;;0.68;0.37;;;;;;;17.86;60.63;99841.59;1702129;84;21070;-73
2022/05/26 09:37:05;;;;;;;0.65;0.10;;;;;;;17.99;60.48;99849.31;1682876;84;21097;-73
2022/05/26 09:39:42;;;;;;;2.50;0.28;;;;;;;18.21;57.88;99843.11;1710290;84;21038;-72
2022/05/26 09:42:24;;;;;;;4.47;0.40;;;;;;;18.21;57.88;99843.11;1711150;84;21569;-72
2022/05/26 09:44:58;;;;;;;2.27;0.20;;;;;;;18.29;57.77;99835.94;1693981;84;21022;-71
2022/05/26 09:47:37;;;;;;;1.72;0.20;;;;;;;18.29;56.08;99832.70;1688989;83;20990;-72
2022/05/26 09:50:09;;;;;;;2.30;0.53;;;;;;;18.06;56.85;99839.17;1704231;84;21094;-72
2022/05/26 09:52:44;;;;;;;4.00;0.15;;;;;;;18.06;56.85;99839.17;1691278;84;21006;-72
2022/05/26 09:55:21;;;;;;;0.30;0.10;;;;;;;18.09;57.56;99827.05;1710447;83;20989;-71
2022/05/26 09:57:48;;;;;;;2.27;0.20;;;;;;;18.22;57.08;99840.16;1712109;83;21073;-71
2022/05/26 10:00:38;;;;;;;3.00;0.35;;;;;;;18.30;56.38;99829.47;1712006;83;21046;-72
2022/05/26 10:03:10;;;;;;;3.40;0.42;;;;;;;18.35;55.99;99832.77;1711840;84;21178;-70
2022/05/26 10:05:47;;;;;;;0.65;0.13;;;;;;;18.37;54.82;99832.79;1710022;84;21030;-73
2022/05/26 10:08:19;;;;;;;0.57;0.10;;;;;;;18.40;55.07;99840.91;1692544;84;21036;-74
2022/05/26 10:11:15;;;;;;;0.50;0.20;;;;;;;18.45;55.37;99838.27;1702448;84;21042;-71
2022/05/26 10:13:57;;;;;;;1.30;0.15;;;;;;;18.52;55.09;99841.59;1701748;84;21097;-71
2022/05/26 10:16:56;;;;;;;0.82;0.13;;;;;;;18.69;53.94;99834.77;1683339;85;21060;-72
2022/05/26 10:19:40;;;;;;;2.85;0.20;;;;;;;18.83;53.08;99826.55;1703602;84;21553;-74
2022/05/26 10:22:24;;;;;;;0.95;0.25;;;;;;;18.96;52.73;99838.83;1706129;84;21042;-78
2022/05/26 10:25:16;;;;;;;0.62;0.20;;;;;;;18.97;53.32;99819.41;1695820;84;21582;-74
2022/05/26 10:27:57;;;;;;;2.72;0.10;;;;;;;19.04;51.80;99836.19;1709972;84;21137;-71
2022/05/26 10:30:35;;;;;;;0.13;0.10;;;;;;;19.04;49.73;99836.19;1677349;84;21074;-75
2022/05/26 10:33:28;;;;;;;2.47;0.40;;;;;;;19.00;48.55;99835.08;1652457;84;21114;-73
2022/05/26 10:36:34;;;;;;;0.40;0.30;;;;;;;19.00;48.93;99832.38;1712103;84;21046;-73
2022/05/26 10:39:21;;;;;;;4.10;0.20;;;;;;;19.02;47.53;99843.73;1700946;84;20991;-72
2022/05/26 10:41:56;;;;;;;0.30;0.20;;;;;;;19.09;48.25;99835.44;1701856;84;21038;-71
2022/05/26 10:44:45;;;;;;;1.35;0.35;;;;;;;19.25;47.22;99838.02;1708962;83;21065;-72
2022/05/26 10:47:19;;;;;;;3.40;0.30;;;;;;;19.37;47.56;99835.13;1700871;84;21002;-73
2022/05/26 10:49:53;;;;;;;2.85;0.23;;;;;;;19.52;47.41;99843.08;1683880;83;21001;-73
2022/05/26 10:52:25;;;;;;;1.05;0.20;;;;;;;19.67;46.60;99841.02;1705766;84;21113;-73
2022/05/26 10:55:17;;;;;;;0.30;0.20;;;;;;;19.83;46.39;99854.91;1698990;84;21313;-74
2022/05/26 10:57:58;;;;;;;3.98;0.20;;;;;;;19.96;46.20;99849.04;1706294;84;21014;-75
2022/05/26 11:00:28;;;;;;;0.20;0.10;;;;;;;20.04;45.78;99820.67;1687453;84;21165;-71
2022/05/26 11:03:19;;;;;;;1.45;0.68;;;;;;;20.01;44.26;99833.39;1687839;84;21058;-73
2022/05/26 11:05:50;;;;;;;2.15;0.50;;;;;;;19.79;44.04;99857.33;1696926;84;21562;-70
2022/05/26 11:08:36;;;;;;;0.30;0.20;;;;;;;19.65;44.50;99851.54;1696289;84;21042;-73
2022/05/26 11:11:34;;;;;;;1.25;0.20;;;;;;;19.49;43.95;99848.44;1687396;84;21221;-72
2022/05/26 11:17:24;;;;;;;0.80;0.20;;;;;;;19.59;45.21;99857.16;1708476;82;22261;-76
2022/05/26 11:20:01;;;;;;;4.25;0.37;;;;;;;19.75;45.46;99860.28;1702611;84;21525;-70
2022/05/26 11:22:28;;;;;;;0.28;0.20;;;;;;;19.90;44.52;99855.50;1699964;84;21038;-74
2022/05/26 11:24:58;;;;;;;1.42;0.20;;;;;;;19.98;44.88;99867.72;1695528;84;21061;-75
2022/05/26 11:27:39;;;;;;;1.70;0.17;;;;;;;20.02;44.67;99848.53;1706316;84;21545;-72
2022/05/26 11:36:07;;;;;;;0.98;0.10;;;;;;;20.05;44.12;99855.33;1705633;84;21112;-74
2022/05/26 11:38:27;;;;;;;2.33;0.20;;;;;;;20.21;42.45;99855.13;1645103;86;21029;-72
2022/05/26 11:41:02;;;;;;;3.05;0.10;;;;;;;20.21;41.73;99859.70;1695281;84;21046;-71
2022/05/26 11:43:45;;;;;;;2.17;0.13;;;;;;;20.20;41.36;99853.48;1696855;84;21101;-72
2022/05/26 11:46:34;;;;;;;2.95;0.30;;;;;;;20.13;41.27;99862.92;1686651;84;21153;-75
2022/05/26 11:49:00;;;;;;;0.65;0.10;;;;;;;20.10;41.67;99862.92;1704423;84;21116;-70
2022/05/26 11:51:29;;;;;;;;;;;;;;;20.05;41.16;99848.56;1698029;84;21533;-72
2022/05/26 11:53:59;;;;;;;2.42;0.10;;;;;;;20.02;41.10;99845.82;1695818;84;20486;-74
2022/05/26 11:56:34;;;;;;;1.50;0.10;;;;;;;19.96;40.90;99853.09;1685899;82;21033;-74
2022/05/26 11:59:26;;;;;;;2.67;0.25;;;;;;;19.96;41.39;99859.86;1678023;84;21138;-72
2022/05/26 12:02:08;;;;;;;3.45;0.20;;;;;;;19.98;41.72;99857.70;1665146;84;21477;-71
2022/05/26 12:04:45;;;;;;;3.52;0.20;;;;;;;20.03;41.91;99856.93;1686047;84;21091;-74
2022/05/26 12:07:23;;;;;;;0.82;0.10;;;;;;;20.13;41.99;99864.28;1669496;84;21082;-72
2022/05/26 12:09:55;;;;;;;0.72;0.10;;;;;;;20.26;41.74;99854.88;1696292;84;21047;-71
2022/05/26 12:12:27;;;;;;;0.70;0.20;;;;;;;20.34;41.34;99858.41;1687357;83;21145;-72
2022/05/26 12:15:06;;;;;;;1.90;0.10;;;;;;;20.38;41.52;99859.51;1688860;84;21023;-70
2022/05/26 12:17:51;;;;;;;1.75;0.10;;;;;;;20.43;40.93;99856.83;1683740;84;21120;-71
2022/05/26 12:20:24;;;;;;;4.35;0.42;;;;;;;20.52;41.38;99866.61;1683732;84;21107;-69
2022/05/26 12:22:57;;;;;;;0.47;0.10;;;;;;;20.59;41.14;99853.09;1645900;86;21009;-71
2022/05/26 12:25:30;;;;;;;2.08;0.20;;;;;;;20.69;39.54;99865.07;1683955;84;20992;-76
2022/05/26 12:28:13;;;;;;;2.47;0.20;;;;;;;20.67;39.45;99858.56;1683510;84;21090;-72
2022/05/26 12:30:50;;;;;;;0.23;0.13;;;;;;;20.61;39.17;99841.48;1682211;84;21311;-73
2022/05/26 12:33:27;;;;;;;6.72;0.53;;;;;;;20.59;38.92;99853.64;1683875;84;21114;-72
2022/05/26 12:36:19;;;;;;;0.72;0.10;;;;;;;20.63;39.14;99858.02;1683663;84;21011;-72
2022/05/26 12:39:15;;;;;;;2.10;0.28;;;;;;;20.68;38.47;99858.02;1686041;84;21519;-71
2022/05/26 12:42:00;;;;;;;0.90;0.10;;;;;;;20.68;38.92;99856.14;1682794;84;21048;-73
2022/05/26 12:45:00;;;;;;;4.67;0.10;;;;;;;20.71;39.09;99865.06;1691155;84;21046;-72